Time;durP1;ratioP1;P1;durP2;ratioP2;P2;SDS_P1;SDS_P2;PMS_P1;PMS_P2;Temp;Humidity;BMP_temperature;BMP_pressure;BME280_temperature;BME280_humidity;BME280_pressure;Samples;Min_cycle;Max_cycle;Signal;HPM_P1;HPM_P2
2021/04/06 00:00:15;;;;;;;7.12;5.00;;;;;;;6.65;49.85;99244.09;1778927;79;21167;-45
2021/04/06 00:02:46;;;;;;;8.58;5.20;;;;;;;6.64;49.99;99249.47;1764204;79;21163;-44
2021/04/06 00:05:16;;;;;;;7.72;5.35;;;;;;;6.62;50.13;99247.37;1783424;79;21165;-42
2021/04/06 00:07:43;;;;;;;10.00;5.45;;;;;;;6.61;50.32;99246.53;1782360;79;21164;-43
2021/04/06 00:10:18;;;;;;;7.17;5.65;;;;;;;6.62;50.30;99244.25;1735619;80;21932;-45
2021/04/06 00:12:47;;;;;;;5.87;4.78;;;;;;;6.62;50.29;99249.55;1746401;80;21143;-44
2021/04/06 00:15:17;;;;;;;9.35;5.80;;;;;;;6.61;50.38;99245.69;1748881;80;21308;-43
2021/04/06 00:17:47;;;;;;;7.25;5.05;;;;;;;6.60;50.41;99248.81;1744356;80;21154;-43
2021/04/06 00:20:16;;;;;;;7.35;5.50;;;;;;;6.58;50.48;99245.88;1762908;80;21153;-44
2021/04/06 00:22:45;;;;;;;7.37;5.08;;;;;;;6.55;50.56;99256.20;1740058;80;21873;-45
2021/04/06 00:25:21;;;;;;;6.47;5.12;;;;;;;6.53;50.74;99245.28;1746323;79;21141;-42
2021/04/06 00:27:50;;;;;;;10.20;5.15;;;;;;;6.53;50.77;99245.28;1764522;80;21173;-42
2021/04/06 00:30:32;;;;;;;7.37;4.95;;;;;;;6.51;50.77;99237.45;1761372;80;21427;-46
2021/04/06 00:33:16;;;;;;;7.60;4.95;;;;;;;6.51;50.91;99241.42;1781517;79;21176;-44
2021/04/06 00:35:44;;;;;;;6.95;4.80;;;;;;;6.50;50.92;99231.76;1774231;79;21162;-44
2021/04/06 00:38:12;;;;;;;8.23;5.03;;;;;;;6.49;50.99;99239.34;1728926;81;21171;-44
2021/04/06 00:40:43;;;;;;;8.23;5.90;;;;;;;6.49;51.04;99235.36;1739074;80;21191;-45
2021/04/06 00:43:11;;;;;;;7.75;5.20;;;;;;;6.48;51.11;99239.81;1758182;79;21583;-43
2021/04/06 00:45:42;;;;;;;7.35;5.40;;;;;;;6.47;51.09;99227.50;1767707;79;21151;-46
2021/04/06 00:48:14;;;;;;;8.50;5.70;;;;;;;6.47;51.13;99235.92;1796153;78;21149;-42
2021/04/06 00:51:07;;;;;;;8.85;5.75;;;;;;;6.44;51.38;99229.02;1774494;79;21191;-44
2021/04/06 00:54:04;;;;;;;7.28;5.12;;;;;;;6.44;51.44;99230.34;1797588;78;21157;-41
2021/04/06 00:56:34;;;;;;;8.90;5.75;;;;;;;6.45;51.57;99225.89;1773823;78;21282;-45
2021/04/06 00:59:09;;;;;;;7.65;5.83;;;;;;;6.45;51.50;99226.77;1765606;79;21684;-42
2021/04/06 01:01:40;;;;;;;7.20;5.67;;;;;;;6.44;51.54;99232.98;1773667;79;21700;-42
2021/04/06 01:04:17;;;;;;;9.15;6.25;;;;;;;6.42;51.70;99229.58;1777243;79;21160;-43
2021/04/06 01:07:14;;;;;;;7.78;5.42;;;;;;;6.38;51.78;99228.08;1774319;79;21168;-44
2021/04/06 01:09:50;;;;;;;8.13;5.62;;;;;;;6.35;51.91;99227.40;1753942;79;21143;-43
2021/04/06 01:12:21;;;;;;;7.33;5.30;;;;;;;6.33;52.03;99221.37;1744058;79;21794;-43
2021/04/06 01:14:50;;;;;;;7.95;5.83;;;;;;;6.31;52.10;99219.28;1780790;79;21754;-45
2021/04/06 01:17:24;;;;;;;9.35;6.10;;;;;;;6.30;52.09;99217.11;1771117;79;21175;-42
2021/04/06 01:19:52;;;;;;;8.85;6.40;;;;;;;6.28;52.24;99214.55;1770214;79;21157;-41
2021/04/06 01:22:20;;;;;;;6.78;5.70;;;;;;;6.25;52.25;99217.86;1747502;79;21663;-46
2021/04/06 01:24:48;;;;;;;8.33;5.78;;;;;;;6.22;52.29;99218.90;1769168;79;21441;-42
2021/04/06 01:27:17;;;;;;;6.90;5.78;;;;;;;6.21;52.42;99219.83;1744070;79;21164;-44
2021/04/06 01:29:53;;;;;;;9.20;6.45;;;;;;;6.21;52.54;99216.33;1777241;79;21153;-42
2021/04/06 01:32:22;;;;;;;8.78;5.10;;;;;;;6.21;52.60;99220.30;1767213;79;21131;-41
2021/04/06 01:34:52;;;;;;;7.67;5.97;;;;;;;6.19;52.58;99216.41;1744754;79;21116;-42
2021/04/06 01:37:21;;;;;;;8.95;6.45;;;;;;;6.17;52.66;99222.27;1773285;79;21173;-42
2021/04/06 01:39:52;;;;;;;8.25;6.33;;;;;;;6.15;52.67;99219.33;1765295;79;21176;-42
2021/04/06 01:42:23;;;;;;;11.93;6.28;;;;;;;6.13;52.84;99223.89;1774172;79;21176;-41
2021/04/06 01:45:00;;;;;;;8.73;5.22;;;;;;;6.13;52.98;99219.92;1784269;78;21184;-39
2021/04/06 01:47:28;;;;;;;8.60;5.50;;;;;;;6.11;53.04;99223.13;1773872;78;21182;-42
2021/04/06 01:49:56;;;;;;;9.98;6.28;;;;;;;6.09;53.09;99224.53;1737527;80;21129;-47
2021/04/06 01:52:27;;;;;;;9.75;6.80;;;;;;;6.08;53.34;99223.31;1754601;80;21161;-41
2021/04/06 01:55:02;;;;;;;10.18;6.37;;;;;;;6.06;53.55;99220.27;1764358;79;21184;-42
2021/04/06 01:57:30;;;;;;;8.98;6.42;;;;;;;6.06;53.60;99214.98;1761504;80;21588;-41
2021/04/06 02:00:16;;;;;;;11.15;6.70;;;;;;;6.08;53.58;99220.19;1765304;80;21169;-40
2021/04/06 02:02:37;;;;;;;11.00;7.60;;;;;;;6.08;53.59;99216.70;1762938;80;21144;-43
2021/04/06 02:05:08;;;;;;;10.20;7.20;;;;;;;6.08;53.49;99222.84;1798364;77;21145;-41
2021/04/06 02:07:38;;;;;;;;;;;;;;;6.05;53.47;99224.35;1776734;79;21168;-42
2021/04/06 02:10:08;;;;;;;9.00;7.10;;;;;;;6.04;53.62;99221.30;1785704;79;20173;-43
2021/04/06 02:12:43;;;;;;;9.00;7.17;;;;;;;6.02;53.86;99223.19;1792117;78;21141;-42
2021/04/06 02:15:12;;;;;;;9.88;6.53;;;;;;;6.00;53.73;99221.97;1764811;80;21089;-40
2021/04/06 02:17:50;;;;;;;8.90;6.45;;;;;;;5.99;53.68;99213.63;1765742;80;21170;-43
2021/04/06 02:20:25;;;;;;;9.15;6.47;;;;;;;5.99;53.75;99215.44;1763977;79;21158;-43
2021/04/06 02:22:58;;;;;;;6.35;5.22;;;;;;;5.98;53.67;99215.07;1775406;78;21170;-43
2021/04/06 02:25:27;;;;;;;9.43;6.40;;;;;;;5.97;53.74;99220.84;1755136;80;21694;-42
2021/04/06 02:27:55;;;;;;;7.53;6.33;;;;;;;5.97;53.83;99223.93;1796439;78;21902;-41
2021/04/06 02:30:32;;;;;;;11.50;7.45;;;;;;;5.96;53.88;99217.80;1760996;80;21148;-43
2021/04/06 02:33:01;;;;;;;10.98;7.03;;;;;;;5.94;53.92;99222.80;1755811;80;21581;-41
2021/04/06 02:35:28;;;;;;;9.00;6.97;;;;;;;5.90;53.89;99223.43;1802590;78;21216;-40
2021/04/06 02:37:56;;;;;;;10.23;6.85;;;;;;;5.88;53.98;99227.95;1771501;79;21387;-40
2021/04/06 02:40:25;;;;;;;11.03;8.25;;;;;;;5.85;54.16;99219.73;1749343;78;21167;-42
2021/04/06 02:42:57;;;;;;;13.22;6.85;;;;;;;5.83;54.21;99212.34;1761036;80;21311;-43
2021/04/06 02:45:28;;;;;;;8.88;6.92;;;;;;;5.84;54.36;99207.42;1779297;79;21098;-41
2021/04/06 02:48:05;;;;;;;18.15;12.43;;;;;;;5.84;54.35;99205.25;1785381;79;21350;-41
2021/04/06 02:50:34;;;;;;;12.75;7.10;;;;;;;5.83;54.33;99216.79;1761308;79;21597;-41
2021/04/06 02:53:08;;;;;;;8.58;6.83;;;;;;;5.83;54.36;99216.31;1800314;78;21131;-44
2021/04/06 02:55:37;;;;;;;7.92;6.15;;;;;;;5.83;54.42;99208.85;1784623;79;21406;-43
2021/04/06 02:58:15;;;;;;;9.18;6.28;;;;;;;5.84;54.24;99211.87;1780131;79;21203;-42
2021/04/06 03:00:43;;;;;;;7.55;6.28;;;;;;;5.84;54.13;99207.90;1800015;78;21141;-40
2021/04/06 03:03:25;;;;;;;7.83;6.20;;;;;;;5.84;54.16;99211.87;1800611;79;21113;-40
2021/04/06 03:06:00;;;;;;;10.95;6.12;;;;;;;5.83;54.21;99211.50;1762017;80;21110;-44
2021/04/06 03:08:32;;;;;;;9.73;7.17;;;;;;;5.83;54.15;99212.82;1760317;80;21704;-45
2021/04/06 03:11:00;;;;;;;8.45;7.10;;;;;;;5.80;54.18;99218.30;1796196;79;21141;-43
2021/04/06 03:13:28;;;;;;;9.60;6.33;;;;;;;5.78;54.26;99214.89;1765788;79;21290;-40
2021/04/06 03:15:57;;;;;;;8.15;6.83;;;;;;;5.78;54.28;99217.05;1779277;79;21157;-42
2021/04/06 03:18:34;;;;;;;8.13;6.15;;;;;;;5.77;54.27;99214.05;1766719;79;21280;-43
2021/04/06 03:21:05;;;;;;;10.23;7.03;;;;;;;5.76;54.37;99216.28;1770718;79;21165;-40
2021/04/06 03:23:33;;;;;;;9.18;6.87;;;;;;;5.74;54.34;99218.64;1775747;79;21440;-41
2021/04/06 03:26:04;;;;;;;7.97;6.15;;;;;;;5.73;54.37;99215.15;1781176;79;21144;-45
2021/04/06 03:28:39;;;;;;;9.25;7.47;;;;;;;5.74;54.33;99221.28;1807232;78;21880;-45
2021/04/06 03:31:16;;;;;;;15.40;11.22;;;;;;;5.72;54.42;99225.36;1802649;78;21110;-45
2021/04/06 03:33:46;;;;;;;12.70;7.83;;;;;;;5.71;54.57;99227.61;1780543;79;21145;-44
2021/04/06 03:36:27;;;;;;;13.98;7.45;;;;;;;5.70;54.46;99236.98;1779768;80;21100;-44
2021/04/06 03:38:58;;;;;;;8.68;7.35;;;;;;;5.67;54.62;99240.65;1783402;79;21157;-45
2021/04/06 03:41:27;;;;;;;9.95;7.58;;;;;;;5.67;54.68;99239.77;1797723;78;21129;-45
2021/04/06 03:44:06;;;;;;;11.85;7.17;;;;;;;5.66;54.86;99243.38;1763963;80;21232;-41
2021/04/06 03:46:35;;;;;;;11.45;6.22;;;;;;;5.63;55.05;99243.92;1764983;80;22588;-42
2021/04/06 03:52:08;;;;;;;10.30;7.25;;;;;;;5.67;55.04;99235.80;1802146;78;22874;-43
2021/04/06 03:54:44;;;;;;;10.20;7.20;;;;;;;5.64;55.06;99243.00;1778891;79;21546;-42
2021/04/06 04:00:10;;;;;;;12.23;10.03;;;;;;;5.69;54.86;99248.00;1788507;77;27733;-43
2021/04/06 04:02:40;;;;;;;11.18;8.40;;;;;;;5.66;54.92;99248.19;1778205;78;21154;-44
2021/04/06 04:05:09;;;;;;;10.68;7.28;;;;;;;5.74;54.72;99245.09;1775104;78;21133;-41
2021/04/06 04:07:38;;;;;;;11.22;7.35;;;;;;;5.75;54.55;99245.02;1775645;78;21566;-44
2021/04/06 04:10:07;;;;;;;12.28;6.78;;;;;;;5.75;54.51;99242.38;1783057;78;21125;-41
2021/04/06 04:12:35;;;;;;;11.40;8.25;;;;;;;5.75;54.61;99243.70;1780262;78;21271;-41
2021/04/06 04:15:07;;;;;;;8.48;6.65;;;;;;;5.76;54.68;99236.13;1776158;78;21125;-44
2021/04/06 04:17:35;;;;;;;8.30;7.03;;;;;;;5.77;54.85;99239.62;1776512;78;21161;-45
2021/04/06 04:20:09;;;;;;;8.70;6.60;;;;;;;5.78;54.67;99240.86;1781901;79;21621;-40
2021/04/06 04:22:37;;;;;;;9.95;6.78;;;;;;;5.82;54.68;99243.73;1778524;78;21137;-44
2021/04/06 04:25:09;;;;;;;11.18;7.33;;;;;;;5.84;54.64;99242.30;1744203;80;21143;-42
2021/04/06 04:27:38;;;;;;;10.63;7.78;;;;;;;5.84;54.57;99239.17;1715232;81;21873;-46
2021/04/06 04:30:08;;;;;;;11.33;7.47;;;;;;;5.86;54.53;99243.91;1721773;81;21146;-48
2021/04/06 04:32:37;;;;;;;9.65;7.40;;;;;;;5.89;54.47;99238.91;1717309;81;21129;-44
2021/04/06 04:35:08;;;;;;;10.70;7.70;;;;;;;5.90;54.45;99235.34;1723385;81;21305;-45
2021/04/06 04:37:35;;;;;;;10.72;7.25;;;;;;;5.93;54.48;99232.98;1721997;81;21114;-45
2021/04/06 04:40:06;;;;;;;9.65;7.20;;;;;;;5.95;54.29;99228.02;1721569;81;21170;-45
2021/04/06 04:42:35;;;;;;;11.50;8.30;;;;;;;5.97;54.23;99234.52;1722441;81;21782;-46
2021/04/06 04:45:06;;;;;;;11.00;8.18;;;;;;;6.00;54.29;99233.04;1720084;81;21115;-42
2021/04/06 04:47:34;;;;;;;13.08;8.08;;;;;;;6.00;54.26;99230.39;1703386;82;21612;-42
2021/04/06 04:50:04;;;;;;;11.50;8.63;;;;;;;6.01;54.23;99232.08;1704315;82;21131;-43
2021/04/06 04:52:32;;;;;;;13.62;9.75;;;;;;;6.03;54.05;99232.37;1704626;82;21131;-44
2021/04/06 04:55:00;;;;;;;10.60;8.30;;;;;;;6.05;53.88;99237.59;1708670;82;21257;-43
2021/04/06 04:57:27;;;;;;;11.75;8.23;;;;;;;6.05;53.83;99234.46;1698120;82;21146;-43
2021/04/06 04:59:55;;;;;;;10.60;7.70;;;;;;;6.08;53.81;99240.52;1689777;83;21159;-42
2021/04/06 05:02:23;;;;;;;9.13;6.95;;;;;;;6.11;53.90;99242.98;1683850;83;21118;-43
2021/04/06 05:04:50;;;;;;;10.95;7.85;;;;;;;6.12;53.92;99238.89;1657573;85;21573;-45
2021/04/06 05:07:19;;;;;;;10.32;7.05;;;;;;;6.14;53.95;99236.17;1701037;82;21146;-46
2021/04/06 05:09:47;;;;;;;11.50;6.97;;;;;;;6.15;53.99;99240.06;1720347;81;21177;-47
2021/04/06 05:12:15;;;;;;;8.43;6.75;;;;;;;6.17;53.93;99246.56;1722009;81;21177;-42
2021/04/06 05:14:43;;;;;;;10.70;7.22;;;;;;;6.18;53.97;99253.11;1722506;81;21129;-40
2021/04/06 05:17:10;;;;;;;9.20;7.10;;;;;;;6.17;54.09;99249.22;1726217;81;21592;-40
2021/04/06 05:19:38;;;;;;;10.35;7.65;;;;;;;6.18;54.36;99249.14;1728334;81;21608;-40
2021/04/06 05:22:06;;;;;;;9.05;7.08;;;;;;;6.19;54.46;99252.16;1718905;81;21951;-41
2021/04/06 05:24:34;;;;;;;10.75;6.28;;;;;;;6.25;54.39;99250.95;1717132;81;21446;-40
2021/04/06 05:27:02;;;;;;;10.80;8.13;;;;;;;6.29;54.37;99245.84;1720244;82;21145;-41
2021/04/06 05:29:29;;;;;;;10.85;8.18;;;;;;;6.33;54.32;99247.84;1720967;81;21515;-42
2021/04/06 05:31:57;;;;;;;8.65;6.53;;;;;;;6.37;54.27;99250.67;1720329;82;21150;-43
2021/04/06 05:34:25;;;;;;;9.43;7.28;;;;;;;6.40;54.42;99247.38;1722566;81;21137;-43
2021/04/06 05:36:54;;;;;;;9.00;6.83;;;;;;;6.47;54.24;99251.81;1717134;81;21133;-42
2021/04/06 05:39:22;;;;;;;10.50;7.62;;;;;;;6.53;54.17;99242.19;1725625;81;21110;-43
2021/04/06 05:41:51;;;;;;;9.60;7.60;;;;;;;6.58;54.10;99238.78;1715543;82;21155;-43
2021/04/06 05:44:19;;;;;;;9.45;6.92;;;;;;;6.63;54.04;99247.30;1716544;81;21130;-43
2021/04/06 05:46:51;;;;;;;10.65;7.55;;;;;;;6.68;54.13;99253.64;1722892;81;21141;-43
2021/04/06 05:49:22;;;;;;;10.18;7.45;;;;;;;6.74;53.84;99249.75;1725818;81;21250;-46
2021/04/06 05:51:50;;;;;;;9.83;7.30;;;;;;;6.80;53.51;99248.03;1722519;81;21173;-44
2021/04/06 05:54:18;;;;;;;10.08;7.55;;;;;;;6.85;53.33;99249.92;1719093;81;21145;-43
2021/04/06 05:56:46;;;;;;;9.23;7.12;;;;;;;6.89;53.30;99249.64;1718848;81;21649;-42
2021/04/06 05:59:13;;;;;;;10.00;7.12;;;;;;;6.96;53.33;99257.22;1729143;80;21149;-44
2021/04/06 06:01:44;;;;;;;8.25;6.65;;;;;;;7.00;53.38;99248.11;1735878;80;21609;-43
2021/04/06 06:04:14;;;;;;;10.53;8.38;;;;;;;7.05;53.50;99250.84;1739157;80;21130;-43
2021/04/06 06:06:42;;;;;;;9.88;7.20;;;;;;;7.13;53.14;99251.68;1738724;80;21150;-43
2021/04/06 06:09:10;;;;;;;8.68;7.15;;;;;;;7.20;53.00;99246.85;1742768;80;21166;-42
2021/04/06 06:12:03;;;;;;;11.60;8.05;;;;;;;7.26;52.74;99244.67;1734517;80;21198;-42
2021/04/06 06:14:36;;;;;;;9.70;6.78;;;;;;;7.32;52.57;99246.91;1658391;84;21319;-43
2021/04/06 06:17:21;;;;;;;9.05;7.75;;;;;;;7.40;52.57;99249.55;1662664;84;21189;-46
2021/04/06 06:19:54;;;;;;;10.05;6.92;;;;;;;7.45;52.17;99248.30;1659219;84;21190;-43
2021/04/06 06:22:31;;;;;;;11.20;8.38;;;;;;;7.53;52.36;99244.69;1664011;84;21212;-43
2021/04/06 06:25:11;;;;;;;9.48;7.03;;;;;;;7.65;52.20;99245.66;1801025;77;23065;-43
2021/04/06 06:27:45;;;;;;;8.68;7.22;;;;;;;7.68;51.89;99249.44;1775228;78;21145;-43
2021/04/06 06:30:38;;;;;;;9.20;7.30;;;;;;;7.76;51.73;99253.79;1719477;81;21159;-43
2021/04/06 06:33:23;;;;;;;9.73;7.22;;;;;;;7.85;51.60;99260.75;1715282;81;21932;-43
2021/04/06 06:35:57;;;;;;;9.88;5.92;;;;;;;7.95;51.45;99261.84;1717209;81;21554;-44
2021/04/06 06:38:35;;;;;;;8.93;6.80;;;;;;;8.03;51.01;99251.07;1713067;81;21125;-43
2021/04/06 06:41:18;;;;;;;9.40;6.67;;;;;;;8.11;50.80;99253.20;1685897;81;21165;-44
2021/04/06 06:43:54;;;;;;;10.03;6.90;;;;;;;8.21;50.47;99256.09;1734149;80;21299;-39
2021/04/06 06:46:31;;;;;;;10.28;7.37;;;;;;;8.30;50.35;99259.95;1718127;82;21491;-43
2021/04/06 06:49:06;;;;;;;10.72;7.90;;;;;;;8.37;49.75;99258.09;1703446;82;21114;-42
2021/04/06 06:51:39;;;;;;;9.00;6.95;;;;;;;8.45;49.57;99254.94;1706776;82;21153;-42
2021/04/06 06:54:06;;;;;;;12.00;7.25;;;;;;;8.51;49.53;99254.98;1707122;83;21162;-43
2021/04/06 06:56:39;;;;;;;10.13;6.87;;;;;;;8.59;49.26;99249.98;1697571;82;21659;-42
2021/04/06 06:59:07;;;;;;;11.50;7.37;;;;;;;8.72;48.58;99242.88;1706635;83;21193;-41
2021/04/06 07:01:38;;;;;;;13.03;7.63;;;;;;;8.72;48.58;99242.88;1678160;83;21118;-45
2021/04/06 07:04:09;;;;;;;9.20;6.45;;;;;;;8.82;48.46;99244.38;1707772;83;21608;-44
2021/04/06 07:06:44;;;;;;;12.90;7.15;;;;;;;8.89;48.34;99245.66;1707580;83;21639;-43
2021/04/06 07:09:25;;;;;;;10.23;7.83;;;;;;;8.98;48.35;99231.72;1707894;83;21299;-44
2021/04/06 07:11:58;;;;;;;10.85;6.12;;;;;;;9.04;48.50;99241.90;1706750;83;21166;-45
2021/04/06 07:14:27;;;;;;;9.03;6.90;;;;;;;9.15;47.90;99244.27;1707433;83;21177;-47
2021/04/06 07:16:55;;;;;;;9.73;6.80;;;;;;;9.24;47.91;99245.78;1709834;83;21144;-39
2021/04/06 07:19:23;;;;;;;8.05;6.42;;;;;;;9.34;47.87;99245.13;1706426;83;21292;-41
2021/04/06 07:21:56;;;;;;;10.05;7.40;;;;;;;9.43;47.55;99239.99;1705564;83;21699;-42
2021/04/06 07:24:29;;;;;;;8.90;6.30;;;;;;;9.53;46.88;99242.34;1698089;83;21155;-41
2021/04/06 07:26:57;;;;;;;12.33;7.83;;;;;;;9.63;46.60;99246.52;1694604;83;21304;-42
2021/04/06 07:29:25;;;;;;;8.58;6.47;;;;;;;9.72;46.41;99251.13;1674647;83;21154;-41
2021/04/06 07:31:53;;;;;;;10.98;6.90;;;;;;;9.81;46.15;99251.44;1715149;82;21565;-40
2021/04/06 07:34:20;;;;;;;8.50;7.10;;;;;;;9.91;46.14;99256.44;1733580;80;21608;-39
2021/04/06 07:36:49;;;;;;;8.43;6.80;;;;;;;10.01;46.22;99252.61;1739697;80;21158;-42
2021/04/06 07:39:17;;;;;;;9.95;6.78;;;;;;;10.11;46.48;99255.78;1733209;80;21130;-44
2021/04/06 07:41:46;;;;;;;10.55;6.25;;;;;;;10.21;46.28;99245.77;1734968;80;21139;-42
2021/04/06 07:44:15;;;;;;;10.18;7.03;;;;;;;10.30;45.17;99249.08;1727694;80;21158;-42
2021/04/06 07:46:47;;;;;;;8.58;6.00;;;;;;;10.36;45.04;99245.47;1739439;80;21582;-40
2021/04/06 07:49:32;;;;;;;7.67;6.12;;;;;;;10.45;45.18;99253.22;1735335;80;21142;-39
2021/04/06 07:52:04;;;;;;;8.30;6.28;;;;;;;10.54;44.68;99251.68;1730810;80;21689;-39
2021/04/06 07:54:42;;;;;;;8.65;6.67;;;;;;;10.62;44.40;99249.26;1729022;80;21131;-43
2021/04/06 07:57:10;;;;;;;9.78;6.60;;;;;;;10.70;43.48;99248.66;1737566;80;21768;-43
2021/04/06 07:59:49;;;;;;;9.55;6.65;;;;;;;10.75;43.54;99252.66;1727917;80;21666;-43
2021/04/06 08:02:21;;;;;;;12.73;6.95;;;;;;;10.81;43.57;99245.52;1729384;80;21896;-42
2021/04/06 08:04:55;;;;;;;9.30;7.15;;;;;;;10.86;43.41;99237.16;1731063;80;21145;-41
2021/04/06 08:07:27;;;;;;;7.58;6.03;;;;;;;10.98;43.29;99249.50;1731087;80;21526;-44
2021/04/06 08:10:27;;;;;;;10.80;7.22;;;;;;;11.07;42.62;99242.59;1731726;80;21157;-46
2021/04/06 08:12:54;;;;;;;9.70;6.92;;;;;;;11.15;42.47;99244.66;1733085;80;21590;-40
2021/04/06 08:15:22;;;;;;;9.28;6.95;;;;;;;11.21;42.70;99241.02;1710137;82;21633;-44
2021/04/06 08:17:53;;;;;;;9.15;6.92;;;;;;;11.29;43.09;99240.86;1698897;82;21228;-43
2021/04/06 08:20:36;;;;;;;8.55;5.80;;;;;;;11.37;42.39;99233.09;1732328;80;21151;-43
2021/04/06 08:23:11;;;;;;;10.13;7.10;;;;;;;11.44;41.48;99236.94;1739558;80;21162;-41
2021/04/06 08:25:44;;;;;;;9.03;6.55;;;;;;;11.52;41.93;99245.69;1745337;80;21146;-42
2021/04/06 08:28:31;;;;;;;10.70;7.53;;;;;;;11.58;41.40;99238.50;1753026;80;21157;-40
2021/04/06 08:31:20;;;;;;;9.78;6.58;;;;;;;11.65;41.29;99244.54;1758286;80;21138;-43
2021/04/06 08:33:48;;;;;;;9.88;6.92;;;;;;;11.76;40.83;99249.48;1756089;80;21554;-43
2021/04/06 08:36:25;;;;;;;9.80;7.12;;;;;;;11.83;40.70;99238.66;1700946;82;21174;-44
2021/04/06 08:38:55;;;;;;;8.33;7.17;;;;;;;11.89;40.23;99239.03;1704528;83;21146;-45
2021/04/06 08:41:28;;;;;;;21.40;15.55;;;;;;;11.96;40.35;99236.68;1719060;82;21155;-46
2021/04/06 08:43:57;;;;;;;11.38;7.80;;;;;;;12.01;40.14;99229.13;1702605;82;21148;-42
2021/04/06 08:46:40;;;;;;;10.08;7.20;;;;;;;12.07;39.72;99229.96;1704113;83;21173;-43
2021/04/06 08:49:23;;;;;;;8.58;6.03;;;;;;;12.13;39.36;99229.92;1723728;82;21130;-38
2021/04/06 08:51:59;;;;;;;8.75;6.10;;;;;;;12.18;39.09;99233.05;1722331;82;21150;-43
2021/04/06 08:54:31;;;;;;;6.83;5.08;;;;;;;12.24;38.90;99227.17;1704354;83;21547;-42
2021/04/06 08:57:01;;;;;;;5.85;4.72;;;;;;;12.31;38.46;99231.52;1706082;83;21178;-41
2021/04/06 08:59:37;;;;;;;5.73;4.30;;;;;;;12.36;37.44;99223.11;1695573;83;21666;-42
2021/04/06 09:02:13;;;;;;;6.17;4.00;;;;;;;12.42;37.45;99225.25;1700139;82;21187;-43
2021/04/06 09:04:49;;;;;;;9.00;5.90;;;;;;;12.47;37.41;99227.91;1703893;83;21133;-44
2021/04/06 09:07:28;;;;;;;6.90;5.47;;;;;;;12.54;37.12;99231.72;1704787;82;21156;-44
2021/04/06 09:10:06;;;;;;;7.03;5.55;;;;;;;12.63;36.76;99232.77;1709253;82;21147;-45
2021/04/06 09:12:36;;;;;;;9.20;5.47;;;;;;;12.72;36.93;99228.44;1704662;83;21153;-46
2021/04/06 09:15:06;;;;;;;6.42;4.42;;;;;;;12.81;36.05;99228.14;1718074;82;21142;-47
2021/04/06 09:17:35;;;;;;;6.77;6.00;;;;;;;12.91;36.59;99214.31;1715898;82;21173;-47
2021/04/06 09:20:15;;;;;;;7.22;5.40;;;;;;;12.91;36.59;99214.31;1714994;82;21130;-47
2021/04/06 09:22:46;;;;;;;8.33;6.20;;;;;;;12.98;36.59;99218.15;1701307;83;21134;-46
2021/04/06 09:25:29;;;;;;;6.72;4.85;;;;;;;13.07;36.37;99219.98;1700932;83;21875;-44
2021/04/06 09:27:59;;;;;;;6.05;4.87;;;;;;;13.14;36.13;99221.14;1684585;83;21202;-46
2021/04/06 09:30:33;;;;;;;6.72;5.25;;;;;;;13.21;35.88;99210.25;1742185;80;21123;-46
2021/04/06 09:33:04;;;;;;;7.25;4.45;;;;;;;13.27;35.82;99199.52;1740992;81;21970;-47
2021/04/06 09:35:33;;;;;;;5.35;4.00;;;;;;;13.33;35.33;99206.14;1684813;82;21161;-43
2021/04/06 09:38:02;;;;;;;5.50;4.58;;;;;;;13.39;34.89;99219.83;1738182;81;21564;-43
2021/04/06 09:40:40;;;;;;;7.47;5.17;;;;;;;13.44;34.51;99212.73;1739298;81;22037;-43
2021/04/06 09:43:08;;;;;;;6.50;4.55;;;;;;;13.47;34.57;99220.48;1738253;81;22019;-43
2021/04/06 09:45:36;;;;;;;6.85;4.62;;;;;;;13.51;34.64;99219.23;1742563;80;21582;-44
2021/04/06 09:48:20;;;;;;;8.25;6.33;;;;;;;13.57;34.46;99211.96;1684853;83;21210;-46
2021/04/06 09:51:03;;;;;;;5.60;4.45;;;;;;;13.63;33.56;99210.08;1688472;83;21165;-46
2021/04/06 09:53:37;;;;;;;5.75;3.50;;;;;;;13.73;33.38;99207.38;1802755;78;22951;-42
2021/04/06 09:59:53;;;;;;;7.08;4.33;;;;;;;13.76;31.71;99210.30;1713945;81;21632;-47
2021/04/06 10:02:24;;;;;;;6.35;4.08;;;;;;;13.76;31.90;99207.13;1725367;81;21646;-44
2021/04/06 10:04:52;;;;;;;6.70;4.58;;;;;;;13.78;32.12;99205.63;1747393;81;21675;-47
2021/04/06 10:07:28;;;;;;;6.25;4.28;;;;;;;13.79;32.14;99201.98;1746543;81;21180;-46
2021/04/06 10:10:08;;;;;;;4.20;3.40;;;;;;;13.80;32.73;99201.81;1716766;82;21177;-46
2021/04/06 10:12:36;;;;;;;5.15;4.08;;;;;;;13.84;32.23;99202.41;1721333;81;21157;-43
2021/04/06 10:15:06;;;;;;;4.28;3.25;;;;;;;13.87;31.84;99187.38;1721238;81;21145;-42
2021/04/06 10:17:37;;;;;;;7.62;4.85;;;;;;;13.92;32.11;99196.33;1721768;82;21196;-43
2021/04/06 10:20:09;;;;;;;47.90;11.60;;;;;;;13.96;32.00;99201.27;1717294;81;21646;-43
2021/04/06 10:22:49;;;;;;;13.43;5.60;;;;;;;14.01;32.19;99192.31;1721017;81;21157;-44
2021/04/06 10:25:21;;;;;;;7.40;4.72;;;;;;;14.05;31.97;99191.02;1720509;81;21161;-45
2021/04/06 10:27:56;;;;;;;9.15;5.97;;;;;;;14.09;32.56;99189.41;1737110;80;21211;-44
2021/04/06 10:30:45;;;;;;;7.20;5.58;;;;;;;14.13;33.11;99189.46;1739978;81;21142;-44
2021/04/06 10:33:23;;;;;;;15.40;7.45;;;;;;;14.19;33.47;99184.88;1718596;81;21602;-46
2021/04/06 10:35:57;;;;;;;7.92;6.03;;;;;;;14.23;33.65;99188.45;1718696;82;21609;-46
2021/04/06 10:38:35;;;;;;;15.05;7.65;;;;;;;14.29;33.77;99191.07;1718206;82;21153;-43
2021/04/06 10:41:10;;;;;;;15.93;7.25;;;;;;;14.32;33.50;99180.55;1717195;81;21153;-45
2021/04/06 10:43:44;;;;;;;6.90;5.83;;;;;;;14.35;33.41;99183.77;1723197;82;21161;-48
2021/04/06 10:46:16;;;;;;;16.95;8.18;;;;;;;14.37;33.15;99176.94;1713901;81;21722;-45
2021/04/06 10:48:53;;;;;;;26.07;8.33;;;;;;;14.38;33.20;99178.11;1696915;82;21181;-45
2021/04/06 10:51:24;;;;;;;48.98;13.03;;;;;;;14.40;32.43;99169.44;1699433;82;21173;-45
2021/04/06 10:53:57;;;;;;;10.55;5.75;;;;;;;14.40;32.82;99176.14;1678979;83;21218;-43
2021/04/06 10:56:33;;;;;;;8.55;5.05;;;;;;;14.44;32.23;99169.50;1682488;83;21554;-47
2021/04/06 10:59:05;;;;;;;43.02;11.08;;;;;;;14.46;32.26;99165.31;1724260;81;21625;-44
2021/04/06 11:01:47;;;;;;;8.23;4.70;;;;;;;14.48;31.75;99156.63;1724461;81;21162;-46
2021/04/06 11:04:20;;;;;;;86.75;19.92;;;;;;;14.51;31.95;99161.70;1722572;81;21143;-42
2021/04/06 11:06:58;;;;;;;23.47;7.50;;;;;;;14.58;31.81;99159.31;1727103;81;21150;-45
2021/04/06 11:09:37;;;;;;;140.45;24.80;;;;;;;14.61;31.68;99163.88;1652499;84;21157;-45
2021/04/06 11:12:09;;;;;;;7.87;5.28;;;;;;;14.65;31.67;99160.42;1722426;81;21173;-46
2021/04/06 11:14:36;;;;;;;6.58;4.25;;;;;;;14.67;30.93;99156.59;1724610;81;21561;-46
2021/04/06 11:17:06;;;;;;;19.87;6.47;;;;;;;14.69;30.91;99157.77;1727195;81;21608;-41
2021/04/06 11:19:42;;;;;;;6.40;4.30;;;;;;;14.69;31.50;99161.80;1726830;81;21175;-41
2021/04/06 11:22:13;;;;;;;9.55;5.40;;;;;;;14.71;30.84;99165.19;1727758;81;21284;-45
2021/04/06 11:24:44;;;;;;;7.60;4.28;;;;;;;14.73;31.09;99155.66;1725348;81;21158;-45
2021/04/06 11:27:18;;;;;;;6.40;3.67;;;;;;;14.77;31.14;99143.14;1726890;81;21127;-43
2021/04/06 11:29:52;;;;;;;6.08;4.37;;;;;;;14.82;30.84;99147.57;1725011;81;21145;-44
2021/04/06 11:35:54;;;;;;;526.75;99.25;;;;;;;14.86;31.21;99141.39;1797286;78;22998;-49
2021/04/06 11:38:22;;;;;;;55.30;11.28;;;;;;;14.83;30.78;99139.85;1772694;80;21177;-43
2021/04/06 11:40:50;;;;;;;36.38;7.85;;;;;;;14.83;31.38;99139.02;1772740;79;21149;-43
2021/04/06 11:43:17;;;;;;;13.40;5.90;;;;;;;14.85;31.07;99132.50;1769795;79;21180;-46
2021/04/06 11:45:45;;;;;;;49.33;11.00;;;;;;;14.89;31.87;99132.56;1769448;79;21110;-44
2021/04/06 11:48:13;;;;;;;62.20;12.75;;;;;;;14.93;30.89;99129.07;1772720;79;21178;-47
2021/04/06 11:50:41;;;;;;;24.02;6.42;;;;;;;14.94;30.88;99129.41;1773995;79;21114;-45
2021/04/06 11:53:09;;;;;;;4.90;3.83;;;;;;;14.94;30.81;99125.37;1718446;81;21125;-42
2021/04/06 11:55:38;;;;;;;137.32;23.67;;;;;;;14.93;30.47;99125.88;1727590;82;21166;-47
2021/04/06 11:58:06;;;;;;;20.10;6.70;;;;;;;14.90;30.58;99134.24;1713804;82;21173;-44
2021/04/06 12:00:34;;;;;;;6.42;4.30;;;;;;;14.86;30.77;99134.18;1714664;83;21153;-45
2021/04/06 12:03:01;;;;;;;67.20;12.80;;;;;;;14.84;31.27;99129.95;1709026;83;21158;-44
2021/04/06 12:05:29;;;;;;;114.77;24.27;;;;;;;14.82;31.54;99131.97;1713929;83;21169;-44
2021/04/06 12:07:56;;;;;;;129.55;24.98;;;;;;;14.79;32.02;99126.88;1715432;83;21129;-43
2021/04/06 12:10:24;;;;;;;8.88;4.92;;;;;;;14.78;31.94;99123.86;1717522;81;21158;-43